Terminal Aerodrome Forecast
Issued by NWS

Home | Current Version | Previous Version | Text Only | Print | Product List | Glossary On
Versions: 1 2 3 4 5 6 7 8 9 10 11 12 13 14 15 16
054
FTUS45 KTFX 181132
TAFBZN
TAF
KBZN 181132Z 1812/1918 VRB04KT P6SM SCT110 BKN200
     FM190400 24011KT P6SM -SN SCT070 BKN090
     FM190600 29006KT 6SM -SNRA SCT025 OVC060
     FM190900 VRB05KT 1 1/2SM -SN BR OVC020
     FM191700 VRB04KT 6SM -SN BR OVC025=

USA.gov is the U.S. government's official web portal to all federal, state and local government web resources and services.